createdAt,value
2023-03-08T00:01:23.041Z,99309.66
2023-03-08T00:03:54.707Z,99347.56
2023-03-08T00:06:21.587Z,99351.69
2023-03-08T00:08:49.541Z,99319.38
2023-03-08T00:11:16.602Z,99285.50
2023-03-08T00:13:43.100Z,99339.47
2023-03-08T00:16:12.237Z,99338.84
2023-03-08T00:18:39.094Z,99290.84
2023-03-08T00:21:08.102Z,99337.91
2023-03-08T00:23:34.908Z,99338.56
2023-03-08T00:26:01.840Z,99265.84
2023-03-08T00:28:28.651Z,99319.44
2023-03-08T00:30:59.321Z,99294.06
2023-03-08T00:33:27.086Z,99341.88
2023-03-08T00:36:00.475Z,99341.59
2023-03-08T00:38:27.706Z,99294.81
2023-03-08T00:40:54.472Z,99295.88
2023-03-08T00:43:21.143Z,99334.66
2023-03-08T00:45:50.109Z,99335.63
2023-03-08T00:48:18.408Z,99345.69
2023-03-08T00:50:45.283Z,99334.38
2023-03-08T00:53:11.903Z,99309.78
2023-03-08T00:55:39.063Z,99318.34
2023-03-08T00:58:06.072Z,99332.66
2023-03-08T01:00:32.937Z,99312.25
2023-03-08T01:03:01.746Z,99328.44
2023-03-08T01:05:28.283Z,99308.09
2023-03-08T01:07:56.132Z,99341.91
2023-03-08T01:10:22.656Z,99294.97
2023-03-08T01:12:49.170Z,99327.66
2023-03-08T01:15:15.678Z,99330.19
2023-03-08T01:17:42.201Z,99293.31
2023-03-08T01:20:09.377Z,99320.66
2023-03-08T01:22:36.147Z,99313.28
2023-03-08T01:25:02.724Z,99317.88
2023-03-08T01:27:29.272Z,99294.66
2023-03-08T01:29:55.785Z,99302.91
2023-03-08T01:32:22.293Z,99279.63
2023-03-08T01:34:49.049Z,99305.84
2023-03-08T01:37:15.623Z,99281.66
2023-03-08T01:39:42.585Z,99268.75
2023-03-08T01:42:09.220Z,99285.09
2023-03-08T01:44:53.585Z,99302.88
2023-03-08T01:47:25.756Z,99292.28
2023-03-08T01:49:54.245Z,99268.50
2023-03-08T01:52:29.056Z,99272.44
2023-03-08T01:54:58.763Z,99286.28
2023-03-08T01:57:31.752Z,99256.59
2023-03-08T02:00:14.379Z,99278.97
2023-03-08T02:02:44.848Z,99273.22
2023-03-08T02:05:11.475Z,99256.75
2023-03-08T02:07:38.016Z,99235.28
2023-03-08T02:10:04.928Z,99249.50
2023-03-08T02:12:31.779Z,99262.72
2023-03-08T02:14:58.514Z,99201.97
2023-03-08T02:17:26.015Z,99204.97
2023-03-08T02:20:15.115Z,99254.56
2023-03-08T02:22:43.472Z,99207.50
2023-03-08T02:25:23.696Z,99249.72
2023-03-08T02:27:51.991Z,99220.19
2023-03-08T02:30:24.699Z,99240.06
2023-03-08T02:32:51.389Z,99214.81
2023-03-08T02:35:18.462Z,99236.66
2023-03-08T02:37:44.992Z,99233.50
2023-03-08T02:40:12.252Z,99220.19
2023-03-08T02:42:39.072Z,99221.34
2023-03-08T02:45:06.937Z,99214.28
2023-03-08T02:47:34.004Z,99209.13
2023-03-08T02:50:00.580Z,99163.22
2023-03-08T02:52:27.287Z,99180.38
2023-03-08T02:54:53.940Z,99208.59
2023-03-08T02:57:21.497Z,99211.06
2023-03-08T02:59:48.111Z,99173.97
2023-03-08T03:02:15.127Z,99180.06
2023-03-08T03:04:41.697Z,99217.44
2023-03-08T03:07:08.300Z,99197.75
2023-03-08T03:09:35.751Z,99191.78
2023-03-08T03:12:02.598Z,99176.38
2023-03-08T03:14:29.399Z,99159.75
2023-03-08T03:16:55.899Z,99190.34
2023-03-08T03:19:22.607Z,99154.84
2023-03-08T03:21:49.090Z,99205.72
2023-03-08T03:24:15.932Z,99159.38
2023-03-08T03:26:42.440Z,99208.63
2023-03-08T03:29:09.178Z,99146.84
2023-03-08T03:31:35.905Z,99176.00
2023-03-08T03:34:02.549Z,99204.91
2023-03-08T03:36:29.056Z,99208.38
2023-03-08T03:38:55.525Z,99176.72
2023-03-08T03:41:23.240Z,99212.28
2023-03-08T03:43:50.304Z,99198.81
2023-03-08T03:46:19.018Z,99177.41
2023-03-08T03:48:46.200Z,99217.63
2023-03-08T03:51:15.066Z,99192.00
2023-03-08T03:53:42.037Z,99155.44
2023-03-08T03:56:13.223Z,99138.84
2023-03-08T03:58:39.980Z,99196.41
2023-03-08T04:01:17.200Z,99190.69
2023-03-08T04:03:44.826Z,99182.19
2023-03-08T04:06:14.568Z,99208.25
2023-03-08T04:08:42.522Z,99205.63
2023-03-08T04:11:15.120Z,99207.06
2023-03-08T04:13:42.290Z,99150.66
2023-03-08T04:16:14.060Z,99121.06
2023-03-08T04:18:41.128Z,99164.31
2023-03-08T04:21:07.944Z,99129.97
2023-03-08T04:23:34.728Z,99137.72
2023-03-08T04:26:01.735Z,99168.47
2023-03-08T04:28:29.069Z,99160.22
2023-03-08T04:30:55.864Z,99150.09
2023-03-08T04:33:22.401Z,99147.69
2023-03-08T04:35:49.233Z,99117.34
2023-03-08T04:38:16.352Z,99119.88
2023-03-08T04:41:11.221Z,99115.56
2023-03-08T04:43:39.453Z,99134.56
2023-03-08T04:46:07.173Z,99134.66
2023-03-08T04:48:33.805Z,99114.84
2023-03-08T04:51:02.339Z,99109.59
2023-03-08T04:53:29.626Z,99128.84
2023-03-08T04:55:56.546Z,99111.50
2023-03-08T04:58:23.433Z,99095.34
2023-03-08T05:00:50.097Z,99112.84
2023-03-08T05:03:16.666Z,99088.03
2023-03-08T05:05:51.046Z,99111.69
2023-03-08T05:08:18.401Z,99106.16
2023-03-08T05:11:04.591Z,99087.53
2023-03-08T05:13:33.908Z,99099.50
2023-03-08T05:16:00.838Z,99073.84
2023-03-08T05:18:27.379Z,99053.50
2023-03-08T05:21:05.702Z,99086.16
2023-03-08T05:23:33.023Z,99081.09
2023-03-08T05:26:01.051Z,99082.25
2023-03-08T05:28:29.995Z,99081.78
2023-03-08T05:31:02.668Z,99082.41
2023-03-08T05:33:29.991Z,99074.25
2023-03-08T05:35:56.993Z,99082.06
2023-03-08T05:38:24.356Z,99075.91
2023-03-08T05:40:51.365Z,99070.66
2023-03-08T05:43:18.561Z,99033.63
2023-03-08T05:45:57.810Z,99011.03
2023-03-08T05:48:24.640Z,99018.22
2023-03-08T05:50:51.477Z,99038.78
2023-03-08T05:53:18.226Z,99005.81
2023-03-08T05:55:45.077Z,99046.78
2023-03-08T05:58:11.619Z,99029.63
2023-03-08T06:00:38.512Z,99002.50
2023-03-08T06:03:05.046Z,99000.44
2023-03-08T06:05:33.108Z,99032.34
2023-03-08T06:07:59.946Z,99026.03
2023-03-08T06:10:27.186Z,99015.53
2023-03-08T06:12:53.717Z,98995.94
2023-03-08T06:15:20.272Z,98991.31
2023-03-08T06:17:46.779Z,99019.75
2023-03-08T06:20:16.749Z,98988.31
2023-03-08T06:22:43.699Z,98997.66
2023-03-08T06:25:10.309Z,98989.75
2023-03-08T06:27:36.793Z,99012.16
2023-03-08T06:30:03.621Z,98978.03
2023-03-08T06:32:30.306Z,98978.53
2023-03-08T06:34:56.806Z,98947.75
2023-03-08T06:37:23.344Z,98969.38
2023-03-08T06:39:49.884Z,98997.88
2023-03-08T06:42:16.451Z,98966.63
2023-03-08T06:44:42.995Z,98970.59
2023-03-08T06:47:09.521Z,98978.63
2023-03-08T06:49:36.154Z,98985.69
2023-03-08T06:52:02.745Z,98964.09
2023-03-08T06:54:29.281Z,98977.22
2023-03-08T06:56:55.761Z,98977.88
2023-03-08T06:59:22.290Z,98984.88
2023-03-08T07:01:49.021Z,98986.06
2023-03-08T07:04:17.984Z,98971.06
2023-03-08T07:06:45.415Z,98969.97
2023-03-08T07:09:13.772Z,98973.75
2023-03-08T07:11:40.590Z,98967.81
2023-03-08T07:14:07.218Z,98958.34
2023-03-08T07:16:33.764Z,98951.47
2023-03-08T07:19:02.123Z,98958.19
2023-03-08T07:21:29.164Z,98922.41
2023-03-08T07:23:55.671Z,98958.06
2023-03-08T07:26:22.425Z,98948.16
2023-03-08T07:28:50.399Z,98958.78
2023-03-08T07:31:17.521Z,98960.38
2023-03-08T07:33:44.443Z,98946.06
2023-03-08T07:36:11.353Z,98956.28
2023-03-08T07:38:38.271Z,98935.56
2023-03-08T07:41:07.678Z,98916.13
2023-03-08T07:43:34.418Z,98951.56
2023-03-08T07:46:02.482Z,98949.97
2023-03-08T07:48:31.043Z,98946.38
2023-03-08T07:51:07.156Z,98903.97
2023-03-08T07:53:33.926Z,98941.28
2023-03-08T07:56:00.722Z,98935.56
2023-03-08T07:58:28.352Z,98941.63
2023-03-08T08:00:55.008Z,98945.13
2023-03-08T08:03:21.674Z,98915.09
2023-03-08T08:05:48.362Z,98918.56
2023-03-08T08:08:14.924Z,98906.59
2023-03-08T08:10:42.228Z,98901.38
2023-03-08T08:13:09.351Z,98901.09
2023-03-08T08:15:35.846Z,98912.47
2023-03-08T08:18:02.362Z,98915.69
2023-03-08T08:20:28.971Z,98914.00
2023-03-08T08:22:55.554Z,98904.56
2023-03-08T08:25:23.122Z,98863.03
2023-03-08T08:27:51.167Z,98895.22
2023-03-08T08:30:19.021Z,98882.56
2023-03-08T08:32:45.615Z,98882.06
2023-03-08T08:35:12.163Z,98863.31
2023-03-08T08:37:38.760Z,98874.56
2023-03-08T08:40:07.951Z,98867.19
2023-03-08T08:42:34.606Z,98871.78
2023-03-08T08:45:01.138Z,98853.31
2023-03-08T08:47:29.651Z,98861.72
2023-03-08T08:49:56.181Z,98873.84
2023-03-08T08:52:23.035Z,98841.28
2023-03-08T08:54:49.620Z,98836.28
2023-03-08T08:57:16.183Z,98826.56
2023-03-08T08:59:44.167Z,98843.00
2023-03-08T09:02:11.987Z,98844.97
2023-03-08T09:04:38.849Z,98845.84
2023-03-08T09:07:07.356Z,98846.66
2023-03-08T09:09:33.940Z,98806.78
2023-03-08T09:12:00.436Z,98836.25
2023-03-08T09:14:27.083Z,98804.22
2023-03-08T09:16:53.750Z,98825.41
2023-03-08T09:19:20.659Z,98786.94
2023-03-08T09:21:47.261Z,98790.75
2023-03-08T09:24:14.107Z,98814.38
2023-03-08T09:26:40.643Z,98792.06
2023-03-08T09:29:07.645Z,98814.50
2023-03-08T09:31:36.415Z,98788.38
2023-03-08T09:34:05.236Z,98810.28
2023-03-08T09:36:31.798Z,98788.25
2023-03-08T09:38:58.387Z,98740.59
2023-03-08T09:41:28.065Z,98797.31
2023-03-08T09:44:19.253Z,98789.69
2023-03-08T09:46:49.888Z,98742.53
2023-03-08T09:49:21.996Z,98754.88
2023-03-08T09:51:53.913Z,98775.88
2023-03-08T09:54:24.040Z,98768.47
2023-03-08T09:56:52.536Z,98751.59
2023-03-08T09:59:35.128Z,98774.44
2023-03-08T10:02:01.631Z,98777.06
2023-03-08T10:04:29.643Z,98778.16
2023-03-08T10:07:05.179Z,98789.69
2023-03-08T10:09:37.210Z,98777.78
2023-03-08T10:12:30.426Z,98767.66
2023-03-08T10:15:04.081Z,98740.50
2023-03-08T10:17:48.954Z,98751.56
2023-03-08T10:20:28.383Z,98737.44
2023-03-08T10:23:07.323Z,98736.22
2023-03-08T10:25:34.625Z,98719.91
2023-03-08T10:28:04.245Z,98736.19
2023-03-08T10:30:37.895Z,98729.19
2023-03-08T10:33:08.565Z,98734.75
2023-03-08T10:35:52.860Z,98737.53
2023-03-08T10:38:22.814Z,98741.00
2023-03-08T10:40:49.685Z,98731.06
2023-03-08T10:43:28.762Z,98696.63
2023-03-08T10:46:04.026Z,98721.44
2023-03-08T10:48:31.523Z,98719.22
2023-03-08T10:51:03.186Z,98715.41
2023-03-08T10:53:30.266Z,98709.81
2023-03-08T10:55:58.802Z,98687.00
2023-03-08T10:58:30.484Z,98692.97
2023-03-08T11:00:59.652Z,98683.72
2023-03-08T11:03:26.802Z,98674.06
2023-03-08T11:06:00.506Z,98669.63
2023-03-08T11:08:36.188Z,98647.44
2023-03-08T11:11:04.750Z,98680.41
2023-03-08T11:13:32.017Z,98688.66
2023-03-08T11:16:38.760Z,98698.41
2023-03-08T11:19:30.201Z,98700.56
2023-03-08T11:22:03.644Z,98693.81
2023-03-08T11:24:57.842Z,98686.44
2023-03-08T11:27:45.784Z,98691.50
2023-03-08T11:30:33.431Z,98676.34
2023-03-08T11:33:07.646Z,98694.00
2023-03-08T11:35:43.254Z,98687.09
2023-03-08T11:38:15.042Z,98654.00
2023-03-08T11:40:59.362Z,98671.75
2023-03-08T11:43:57.024Z,98669.47
2023-03-08T11:46:29.964Z,98683.44
2023-03-08T11:49:03.646Z,98649.09
2023-03-08T11:51:34.087Z,98656.31
2023-03-08T11:54:18.502Z,98648.44
2023-03-08T11:57:07.480Z,98617.13
2023-03-08T11:59:37.069Z,98656.53
2023-03-08T12:02:06.805Z,98658.25
2023-03-08T12:04:58.782Z,98652.94
2023-03-08T12:07:39.235Z,98655.38
2023-03-08T12:10:27.290Z,98672.78
2023-03-08T12:13:02.671Z,98671.25
2023-03-08T12:16:09.154Z,98672.16
2023-03-08T12:18:55.034Z,98655.13
2023-03-08T12:21:30.542Z,98662.34
2023-03-08T12:24:09.347Z,98652.31
2023-03-08T12:26:39.872Z,98644.72
2023-03-08T12:29:16.616Z,98601.97
2023-03-08T12:31:47.455Z,98616.72
2023-03-08T12:34:27.379Z,98647.25
2023-03-08T12:36:54.360Z,98616.31
2023-03-08T12:39:30.471Z,98641.84
2023-03-08T12:42:01.788Z,98638.13
2023-03-08T12:44:31.817Z,98613.72
2023-03-08T12:47:13.683Z,98642.06
2023-03-08T12:49:42.740Z,98629.94
2023-03-08T12:52:18.653Z,98622.66
2023-03-08T12:54:56.956Z,98627.56
2023-03-08T12:57:25.024Z,98624.69
2023-03-08T13:00:00.814Z,98580.19
2023-03-08T13:02:34.980Z,98619.25
2023-03-08T13:05:21.198Z,98606.97
2023-03-08T13:08:12.938Z,98584.75
2023-03-08T13:11:04.363Z,98583.13
2023-03-08T13:13:52.807Z,98608.09
2023-03-08T13:16:30.505Z,98615.38
2023-03-08T13:19:11.967Z,98573.84
2023-03-08T13:21:41.523Z,98554.72
2023-03-08T13:24:22.793Z,98582.63
2023-03-08T13:27:30.476Z,98588.84
2023-03-08T13:30:17.096Z,98527.84
2023-03-08T13:32:44.396Z,98606.16
2023-03-08T13:35:15.434Z,98601.47
2023-03-08T13:37:42.380Z,98602.47
2023-03-08T13:40:20.540Z,98590.44
2023-03-08T13:43:00.320Z,98574.00
2023-03-08T13:45:26.973Z,98602.06
2023-03-08T13:47:55.913Z,98511.25
2023-03-08T13:50:30.717Z,98571.66
2023-03-08T13:52:57.959Z,98554.09
2023-03-08T13:55:33.870Z,98566.84
2023-03-08T13:58:01.264Z,98570.09
2023-03-08T14:00:31.441Z,98567.06
2023-03-08T14:03:00.066Z,98550.19
2023-03-08T14:05:29.404Z,98574.41
2023-03-08T14:08:07.480Z,98557.31
2023-03-08T14:10:48.861Z,98564.56
2023-03-08T14:13:27.868Z,98565.28
2023-03-08T14:15:57.442Z,98526.56
2023-03-08T14:18:36.588Z,98504.09
2023-03-08T14:21:18.246Z,98540.50
2023-03-08T14:23:53.553Z,98537.47
2023-03-08T14:26:28.223Z,98539.28
2023-03-08T14:29:22.752Z,98542.34
2023-03-08T14:31:56.810Z,98539.84
2023-03-08T14:34:59.541Z,98481.41
2023-03-08T14:37:30.627Z,98528.94
2023-03-08T14:40:19.822Z,98535.56
2023-03-08T14:42:48.188Z,98532.78
2023-03-08T14:45:23.025Z,98532.78
2023-03-08T14:47:55.826Z,98525.88
2023-03-08T14:50:25.590Z,98520.78
2023-03-08T14:52:54.986Z,98512.59
2023-03-08T14:55:26.105Z,98517.22
2023-03-08T14:58:04.519Z,98513.06
2023-03-08T15:00:31.891Z,98517.69
2023-03-08T15:03:00.105Z,98519.06
2023-03-08T15:05:29.431Z,98519.84
2023-03-08T15:07:57.598Z,98516.19
2023-03-08T15:10:40.002Z,98483.22
2023-03-08T15:13:12.534Z,98478.59
2023-03-08T15:15:39.091Z,98481.00
2023-03-08T15:18:05.830Z,98482.13
2023-03-08T15:20:32.552Z,98468.97
2023-03-08T15:23:01.265Z,98483.50
2023-03-08T15:25:30.178Z,98481.59
2023-03-08T15:27:57.073Z,98488.78
2023-03-08T15:30:26.570Z,98487.09
2023-03-08T15:32:53.981Z,98490.06
2023-03-08T15:35:20.627Z,98486.56
2023-03-08T15:37:47.429Z,98466.06
2023-03-08T15:40:16.646Z,98499.56
2023-03-08T15:42:43.468Z,98486.13
2023-03-08T15:45:10.831Z,98500.66
2023-03-08T15:47:38.062Z,98462.75
2023-03-08T15:50:07.042Z,98503.97
2023-03-08T15:52:33.546Z,98515.66
2023-03-08T15:55:00.105Z,98486.97
2023-03-08T15:57:26.701Z,98508.41
2023-03-08T15:59:53.245Z,98509.56
2023-03-08T16:02:20.671Z,98497.94
2023-03-08T16:04:49.104Z,98493.91
2023-03-08T16:07:19.347Z,98500.00
2023-03-08T16:09:46.896Z,98514.94
2023-03-08T16:12:15.136Z,98486.84
2023-03-08T16:14:47.785Z,98511.28
2023-03-08T16:17:16.756Z,98521.81
2023-03-08T16:19:43.986Z,98514.28
2023-03-08T16:22:11.058Z,98510.47
2023-03-08T16:24:37.817Z,98515.06
2023-03-08T16:27:04.935Z,98507.59
2023-03-08T16:29:33.063Z,98507.88
2023-03-08T16:31:59.684Z,98439.66
2023-03-08T16:34:27.447Z,98507.16
2023-03-08T16:36:54.529Z,98474.38
2023-03-08T16:39:21.360Z,98505.06
2023-03-08T16:41:48.121Z,98505.66
2023-03-08T16:44:26.889Z,98511.47
2023-03-08T16:46:54.130Z,98496.53
2023-03-08T16:49:22.687Z,98464.53
2023-03-08T16:51:52.087Z,98520.91
2023-03-08T16:54:21.783Z,98515.06
2023-03-08T16:56:48.307Z,98478.41
2023-03-08T16:59:15.472Z,98507.88
2023-03-08T17:01:43.428Z,98483.78
2023-03-08T17:04:10.850Z,98482.25
2023-03-08T17:06:43.850Z,98505.97
2023-03-08T17:09:11.997Z,98493.16
2023-03-08T17:11:39.133Z,98509.25
2023-03-08T17:14:08.594Z,98488.22
2023-03-08T17:16:35.660Z,98512.59
2023-03-08T17:19:05.305Z,98461.94
2023-03-08T17:21:38.318Z,98508.84
2023-03-08T17:24:11.380Z,98497.78
2023-03-08T17:26:43.218Z,98506.78
2023-03-08T17:29:10.203Z,98498.31
2023-03-08T17:31:36.880Z,98485.06
2023-03-08T17:34:04.576Z,98504.56
2023-03-08T17:36:31.341Z,98476.91
2023-03-08T17:38:57.984Z,98496.69
2023-03-08T17:41:25.150Z,98484.09
2023-03-08T17:43:58.240Z,98487.38
2023-03-08T17:46:31.001Z,98482.66
2023-03-08T17:48:57.555Z,98486.81
2023-03-08T17:51:26.857Z,98473.81
2023-03-08T17:53:53.919Z,98459.69
2023-03-08T17:56:25.110Z,98472.97
2023-03-08T17:58:52.544Z,98475.31
2023-03-08T18:01:22.941Z,98478.44
2023-03-08T18:03:50.258Z,98488.03
2023-03-08T18:06:30.288Z,98491.78
2023-03-08T18:08:58.057Z,98495.13
2023-03-08T18:11:25.426Z,98503.53
2023-03-08T18:13:52.565Z,98501.22
2023-03-08T18:16:21.083Z,98506.50
2023-03-08T18:18:49.853Z,98503.47
2023-03-08T18:21:17.847Z,98486.84
2023-03-08T18:23:44.858Z,98492.06
2023-03-08T18:26:12.548Z,98498.72
2023-03-08T18:28:39.848Z,98508.13
2023-03-08T18:31:12.563Z,98509.44
2023-03-08T18:33:39.826Z,98481.28
2023-03-08T18:36:06.635Z,98494.88
2023-03-08T18:38:33.350Z,98499.28
2023-03-08T18:40:59.947Z,98498.84
2023-03-08T18:43:26.731Z,98493.16
2023-03-08T18:45:55.436Z,98492.78
2023-03-08T18:48:24.186Z,98490.19
2023-03-08T18:50:50.858Z,98502.63
2023-03-08T18:53:17.656Z,98496.81
2023-03-08T18:55:57.425Z,98489.44
2023-03-08T18:58:25.821Z,98492.47
2023-03-08T19:00:54.613Z,98481.03
2023-03-08T19:03:21.310Z,98468.72
2023-03-08T19:05:48.291Z,98468.00
2023-03-08T19:08:15.111Z,98437.03
2023-03-08T19:10:41.649Z,98453.91
2023-03-08T19:13:08.272Z,98463.34
2023-03-08T19:15:38.661Z,98448.09
2023-03-08T19:18:06.456Z,98468.34
2023-03-08T19:20:38.178Z,98478.22
2023-03-08T19:23:04.790Z,98472.94
2023-03-08T19:25:32.688Z,98480.69
2023-03-08T19:27:59.391Z,98461.06
2023-03-08T19:30:28.421Z,98454.00
2023-03-08T19:32:56.131Z,98463.84
2023-03-08T19:35:23.229Z,98423.34
2023-03-08T19:37:49.778Z,98450.81
2023-03-08T19:40:17.258Z,98453.59
2023-03-08T19:42:44.090Z,98476.53
2023-03-08T19:45:12.978Z,98464.50
2023-03-08T19:47:39.529Z,98452.78
2023-03-08T19:50:06.503Z,98440.19
2023-03-08T19:52:33.116Z,98463.22
2023-03-08T19:54:59.778Z,98460.25
2023-03-08T19:57:26.547Z,98456.38
2023-03-08T19:59:53.155Z,98404.03
2023-03-08T20:02:19.704Z,98458.72
2023-03-08T20:04:46.248Z,98428.69
2023-03-08T20:07:13.031Z,98452.78
2023-03-08T20:09:42.222Z,98435.06
2023-03-08T20:12:09.700Z,98450.44
2023-03-08T20:14:36.798Z,98423.31
2023-03-08T20:17:05.160Z,98439.75
2023-03-08T20:19:33.844Z,98433.41
2023-03-08T20:22:00.627Z,98417.78
2023-03-08T20:24:27.652Z,98426.38
2023-03-08T20:26:54.353Z,98439.72
2023-03-08T20:29:20.945Z,98424.13
2023-03-08T20:31:48.215Z,98445.19
2023-03-08T20:34:25.493Z,98446.59
2023-03-08T20:36:56.192Z,98444.44
2023-03-08T20:42:22.081Z,98444.84
2023-03-08T20:45:19.281Z,98450.34
2023-03-08T20:47:49.098Z,98407.69
2023-03-08T20:50:15.917Z,98444.16
2023-03-08T20:52:42.426Z,98404.69
2023-03-08T20:55:09.297Z,98405.66
2023-03-08T20:57:36.294Z,98429.09
2023-03-08T21:00:04.964Z,98409.44
2023-03-08T21:02:31.657Z,98400.72
2023-03-08T21:04:58.214Z,98436.66
2023-03-08T21:07:24.764Z,98422.19
2023-03-08T21:09:51.237Z,98427.81
2023-03-08T21:12:17.790Z,98381.06
2023-03-08T21:14:44.291Z,98412.47
2023-03-08T21:17:10.777Z,98406.78
2023-03-08T21:19:37.341Z,98383.81
2023-03-08T21:22:05.187Z,98361.94
2023-03-08T21:24:31.720Z,98404.75
2023-03-08T21:27:00.228Z,98380.44
2023-03-08T21:29:28.185Z,98403.50
2023-03-08T21:31:54.783Z,98373.09
2023-03-08T21:34:21.643Z,98382.53
2023-03-08T21:36:48.282Z,98375.59
2023-03-08T21:39:15.060Z,98405.75
2023-03-08T21:41:43.420Z,98399.53
2023-03-08T21:44:13.676Z,98382.81
2023-03-08T21:46:41.368Z,98332.50
2023-03-08T21:49:10.313Z,98383.06
2023-03-08T21:51:38.387Z,98388.19
2023-03-08T21:54:05.997Z,98371.97
2023-03-08T21:56:35.586Z,98355.00
2023-03-08T21:59:02.315Z,98384.47
2023-03-08T22:01:30.262Z,98377.81
2023-03-08T22:03:57.861Z,98381.16
2023-03-08T22:06:25.535Z,98363.03
2023-03-08T22:08:52.472Z,98368.72
2023-03-08T22:11:20.155Z,98358.19
2023-03-08T22:13:55.062Z,98374.78
2023-03-08T22:16:21.910Z,98352.38
2023-03-08T22:18:52.100Z,98339.53
2023-03-08T22:21:18.814Z,98353.06
2023-03-08T22:23:45.489Z,98350.03
2023-03-08T22:26:11.984Z,98325.72
2023-03-08T22:28:38.800Z,98347.69
2023-03-08T22:31:13.493Z,98344.47
2023-03-08T22:33:40.407Z,98328.31
2023-03-08T22:36:09.450Z,98325.84
2023-03-08T22:38:36.340Z,98335.25
2023-03-08T22:41:12.578Z,98328.59
2023-03-08T22:43:42.588Z,98335.91
2023-03-08T22:46:16.082Z,98296.53
2023-03-08T22:48:44.072Z,98303.72
2023-03-08T22:51:11.875Z,98287.66
2023-03-08T22:53:39.486Z,98315.31
2023-03-08T22:56:07.196Z,98285.03
2023-03-08T22:58:33.847Z,98309.09
2023-03-08T23:01:00.384Z,98304.28
2023-03-08T23:03:26.934Z,98304.28
2023-03-08T23:05:53.911Z,98298.75
2023-03-08T23:08:21.520Z,98293.34
2023-03-08T23:10:49.214Z,98300.53
2023-03-08T23:13:31.213Z,98241.69
2023-03-08T23:15:59.532Z,98270.34
2023-03-08T23:18:26.260Z,98292.41
2023-03-08T23:20:52.853Z,98261.84
2023-03-08T23:23:19.463Z,98283.28
2023-03-08T23:25:46.089Z,98265.31
2023-03-08T23:28:12.612Z,98256.91
2023-03-08T23:30:42.154Z,98278.16
2023-03-08T23:33:08.705Z,98264.47
2023-03-08T23:35:35.466Z,98261.19
2023-03-08T23:38:02.045Z,98275.69
2023-03-08T23:40:28.604Z,98269.03
2023-03-08T23:42:55.178Z,98245.94
2023-03-08T23:45:21.938Z,98226.88
2023-03-08T23:47:48.504Z,98262.94
2023-03-08T23:50:15.069Z,98276.63
2023-03-08T23:52:41.865Z,98249.09
2023-03-08T23:55:08.902Z,98268.31
2023-03-08T23:57:35.671Z,98270.19
